createdAt,value
2022-10-29T00:04:07.333Z,16.83
2022-10-29T00:09:12.188Z,16.76
2022-10-29T00:14:15.299Z,16.80
2022-10-29T00:19:19.766Z,16.74
2022-10-29T00:24:24.316Z,16.73
2022-10-29T00:29:27.368Z,16.77
2022-10-29T00:34:33.605Z,16.87
2022-10-29T00:39:37.232Z,16.89
2022-10-29T00:44:44.376Z,16.92
2022-10-29T00:49:52.475Z,16.97
2022-10-29T00:54:57.257Z,16.99
2022-10-29T01:00:00.558Z,17.04
2022-10-29T01:05:07.249Z,17.05
2022-10-29T01:10:11.624Z,17.01
2022-10-29T01:15:22.819Z,17.00
2022-10-29T01:20:58.254Z,17.03
2022-10-29T01:26:22.161Z,17.04
2022-10-29T01:31:35.180Z,17.03
2022-10-29T01:36:52.234Z,16.94
2022-10-29T01:42:03.815Z,16.82
2022-10-29T01:47:15.374Z,16.75
2022-10-29T01:52:22.334Z,16.71
2022-10-29T01:57:31.917Z,16.66
2022-10-29T02:02:49.548Z,16.61
2022-10-29T02:07:57.661Z,16.61
2022-10-29T02:13:01.504Z,16.56
2022-10-29T02:18:09.218Z,16.53
2022-10-29T02:23:12.505Z,16.50
2022-10-29T02:28:15.637Z,16.45
2022-10-29T02:33:21.346Z,16.43
2022-10-29T02:38:24.482Z,16.42
2022-10-29T02:43:27.465Z,16.42
2022-10-29T02:48:31.849Z,16.40
2022-10-29T02:53:34.853Z,16.35
2022-10-29T02:58:38.214Z,16.28
2022-10-29T03:03:42.813Z,16.21
2022-10-29T03:08:47.053Z,16.16
2022-10-29T03:13:50.111Z,16.11
2022-10-29T03:18:54.691Z,16.05
2022-10-29T03:23:57.747Z,16.00
2022-10-29T03:29:01.203Z,15.96
2022-10-29T03:34:05.558Z,15.89
2022-10-29T03:39:09.067Z,15.83
2022-10-29T03:44:12.157Z,15.81
2022-10-29T03:49:16.692Z,15.76
2022-10-29T03:54:20.054Z,15.70
2022-10-29T03:59:22.975Z,15.67
2022-10-29T04:04:27.412Z,15.62
2022-10-29T04:09:30.893Z,15.58
2022-10-29T04:14:34.050Z,15.53
2022-10-29T04:19:38.866Z,15.52
2022-10-29T04:27:07.697Z,15.50
2022-10-29T04:30:06.043Z,15.46
2022-10-29T04:35:10.781Z,15.45
2022-10-29T04:40:14.248Z,15.41
2022-10-29T04:45:17.228Z,15.38
2022-10-29T04:50:23.321Z,15.37
2022-10-29T04:55:26.497Z,15.34
2022-10-29T05:00:29.887Z,15.33
2022-10-29T05:05:34.411Z,15.32
2022-10-29T05:10:39.603Z,15.29
2022-10-29T05:15:43.288Z,15.26
2022-10-29T05:20:47.916Z,15.23
2022-10-29T05:25:52.774Z,15.22
2022-10-29T05:30:56.087Z,15.19
2022-10-29T05:36:01.990Z,15.18
2022-10-29T05:41:05.273Z,15.15
2022-10-29T05:46:08.280Z,15.13
2022-10-29T05:51:12.851Z,15.11
2022-10-29T05:56:16.415Z,15.08
2022-10-29T06:01:20.402Z,15.06
2022-10-29T06:06:25.408Z,15.06
2022-10-29T06:11:30.967Z,15.06
2022-10-29T06:16:34.225Z,15.07
2022-10-29T06:21:39.113Z,15.15
2022-10-29T06:26:45.248Z,15.27
2022-10-29T06:31:48.322Z,15.34
2022-10-29T06:36:52.759Z,15.34
2022-10-29T06:41:56.070Z,15.38
2022-10-29T06:46:59.359Z,15.45
2022-10-29T06:52:03.901Z,15.58
2022-10-29T06:57:09.680Z,15.72
2022-10-29T07:02:16.460Z,15.85
2022-10-29T07:07:20.922Z,15.94
2022-10-29T07:12:26.035Z,15.99
2022-10-29T07:17:29.110Z,16.11
2022-10-29T07:22:34.885Z,16.30
2022-10-29T07:27:38.056Z,16.48
2022-10-29T07:32:41.037Z,16.73
2022-10-29T07:37:45.645Z,16.92
2022-10-29T07:42:53.539Z,17.16
2022-10-29T07:48:02.935Z,17.35
2022-10-29T07:53:09.375Z,17.67
2022-10-29T07:58:13.791Z,17.83
2022-10-29T08:03:17.698Z,18.03
2022-10-29T08:08:23.267Z,18.13
2022-10-29T08:13:31.352Z,18.28
2022-10-29T08:18:34.924Z,18.34
2022-10-29T08:23:52.527Z,18.50
2022-10-29T08:28:59.272Z,18.60
2022-10-29T08:34:11.065Z,18.69
2022-10-29T08:39:23.141Z,18.81
2022-10-29T08:44:55.189Z,18.93
2022-10-29T08:50:10.551Z,19.04
2022-10-29T08:55:27.905Z,19.20
2022-10-29T09:00:37.694Z,19.37
2022-10-29T09:05:55.605Z,19.61
2022-10-29T09:11:14.110Z,19.65
2022-10-29T09:16:50.032Z,19.71
2022-10-29T09:22:06.475Z,19.85
2022-10-29T09:27:20.610Z,20.01
2022-10-29T09:32:29.351Z,20.10
2022-10-29T09:37:43.576Z,20.15
2022-10-29T09:42:50.080Z,20.15
2022-10-29T09:48:09.716Z,20.24
2022-10-29T09:53:20.720Z,20.34
2022-10-29T09:58:29.650Z,20.40
2022-10-29T10:03:42.982Z,20.52
2022-10-29T10:09:16.089Z,20.71
2022-10-29T10:14:34.490Z,20.81
2022-10-29T10:19:53.178Z,20.95
2022-10-29T10:24:58.875Z,21.00
2022-10-29T10:30:18.803Z,21.06
2022-10-29T10:35:30.557Z,21.14
2022-10-29T10:40:36.969Z,21.25
2022-10-29T10:45:56.507Z,21.30
2022-10-29T10:51:28.851Z,21.40
2022-10-29T10:56:46.375Z,21.47
2022-10-29T11:02:01.426Z,21.50
2022-10-29T11:07:19.288Z,21.54
2022-10-29T11:12:32.536Z,21.64
2022-10-29T11:17:52.938Z,21.74
2022-10-29T11:23:10.811Z,21.85
2022-10-29T11:28:26.412Z,21.98
2022-10-29T11:33:44.462Z,22.05
2022-10-29T11:38:56.389Z,22.20
2022-10-29T11:44:00.605Z,22.21
2022-10-29T11:49:20.914Z,22.24
2022-10-29T11:54:44.809Z,22.23
2022-10-29T12:00:05.603Z,22.20
2022-10-29T12:05:23.072Z,22.15
2022-10-29T12:10:48.096Z,22.08
2022-10-29T12:16:06.652Z,22.15
2022-10-29T12:21:36.700Z,22.19
2022-10-29T12:26:54.349Z,22.22
2022-10-29T12:32:11.686Z,22.26
2022-10-29T12:37:30.927Z,22.20
2022-10-29T12:42:41.158Z,22.15
2022-10-29T12:48:10.732Z,22.12
2022-10-29T12:53:35.592Z,22.06
2022-10-29T12:59:15.822Z,22.01
2022-10-29T13:04:33.268Z,21.98
2022-10-29T13:09:48.319Z,21.92
2022-10-29T13:15:04.816Z,21.88
2022-10-29T13:20:26.557Z,21.85
2022-10-29T13:25:57.905Z,21.81
2022-10-29T13:31:37.200Z,21.80
2022-10-29T13:36:41.987Z,21.78
2022-10-29T13:41:55.104Z,21.81
2022-10-29T13:47:05.959Z,21.84
2022-10-29T13:52:20.863Z,21.84
2022-10-29T14:02:57.883Z,21.87
2022-10-29T14:08:09.357Z,21.86
2022-10-29T14:13:32.705Z,21.86
2022-10-29T14:18:53.850Z,21.83
2022-10-29T14:24:03.630Z,21.80
2022-10-29T14:29:22.242Z,21.77
2022-10-29T14:34:37.869Z,21.68
2022-10-29T14:40:02.871Z,21.62
2022-10-29T14:45:30.939Z,21.55
2022-10-29T14:50:41.760Z,21.42
2022-10-29T14:55:54.779Z,21.37
2022-10-29T15:01:17.118Z,21.37
2022-10-29T15:06:27.821Z,21.35
2022-10-29T15:11:43.676Z,21.29
2022-10-29T15:16:58.036Z,21.19
2022-10-29T15:22:13.014Z,21.10
2022-10-29T15:27:18.240Z,20.93
2022-10-29T15:32:33.749Z,20.80
2022-10-29T15:37:55.542Z,20.69
2022-10-29T15:43:30.373Z,20.61
2022-10-29T15:48:51.510Z,20.52
2022-10-29T15:54:01.485Z,20.45
2022-10-29T15:59:13.639Z,20.37
2022-10-29T16:04:23.894Z,20.26
2022-10-29T16:09:32.163Z,20.16
2022-10-29T16:14:43.303Z,20.06
2022-10-29T16:19:51.535Z,19.99
2022-10-29T16:24:57.548Z,19.95
2022-10-29T16:30:10.686Z,19.91
2022-10-29T16:35:33.095Z,19.88
2022-10-29T16:40:44.284Z,19.81
2022-10-29T16:46:05.657Z,19.74
2022-10-29T16:51:19.437Z,19.71
2022-10-29T16:56:42.745Z,19.66
2022-10-29T17:01:57.500Z,19.62
2022-10-29T17:07:12.389Z,19.57
2022-10-29T17:12:25.048Z,19.43
2022-10-29T17:17:46.363Z,19.31
2022-10-29T17:23:07.674Z,19.20
2022-10-29T17:28:19.902Z,19.13
2022-10-29T17:33:30.035Z,19.07
2022-10-29T17:38:54.892Z,19.04
2022-10-29T17:44:37.972Z,19.06
2022-10-29T17:49:55.314Z,18.99
2022-10-29T17:55:20.624Z,18.94
2022-10-29T18:00:32.546Z,18.83
2022-10-29T18:05:50.913Z,18.76
2022-10-29T18:11:09.391Z,18.72
2022-10-29T18:16:24.174Z,18.63
2022-10-29T18:21:49.502Z,18.53
2022-10-29T18:27:17.465Z,18.45
2022-10-29T18:32:32.461Z,18.41
2022-10-29T18:37:41.756Z,18.39
2022-10-29T18:42:47.866Z,18.35
2022-10-29T18:47:58.574Z,18.36
2022-10-29T18:58:46.029Z,18.30
2022-10-29T19:03:58.272Z,18.24
2022-10-29T19:09:24.846Z,18.20
2022-10-29T19:14:33.771Z,18.21
2022-10-29T19:19:54.529Z,18.21
2022-10-29T19:24:59.915Z,18.23
2022-10-29T19:30:10.058Z,18.24
2022-10-29T19:35:16.363Z,18.24
2022-10-29T19:40:35.896Z,18.26
2022-10-29T19:45:52.372Z,18.21
2022-10-29T19:51:00.973Z,18.12
2022-10-29T19:56:07.918Z,18.02
2022-10-29T20:01:17.807Z,17.93
2022-10-29T20:06:25.795Z,17.91
2022-10-29T20:11:33.074Z,17.91
2022-10-29T20:16:46.687Z,17.89
2022-10-29T20:22:11.496Z,17.86
2022-10-29T20:27:33.674Z,17.83
2022-10-29T20:32:46.774Z,17.83
2022-10-29T20:38:02.502Z,17.83
2022-10-29T20:43:30.329Z,17.85
2022-10-29T20:49:03.466Z,17.88
2022-10-29T20:54:15.101Z,17.82
2022-10-29T20:59:39.656Z,17.77
2022-10-29T21:04:53.000Z,17.71
2022-10-29T21:10:09.213Z,17.63
2022-10-29T21:15:17.880Z,17.57
2022-10-29T21:20:31.679Z,17.54
2022-10-29T21:25:44.820Z,17.53
2022-10-29T21:30:56.792Z,17.53
2022-10-29T21:36:09.924Z,17.50
2022-10-29T21:41:22.726Z,17.50
2022-10-29T21:46:28.205Z,17.51
2022-10-29T21:51:37.681Z,17.53
2022-10-29T21:56:53.605Z,17.50
2022-10-29T22:02:12.363Z,17.48
2022-10-29T22:07:27.331Z,17.47
2022-10-29T22:12:44.154Z,17.49
2022-10-29T22:17:51.667Z,17.52
2022-10-29T22:23:10.408Z,17.52
2022-10-29T22:28:24.568Z,17.51
2022-10-29T22:33:40.732Z,17.51
2022-10-29T22:38:47.071Z,17.52
2022-10-29T22:43:53.113Z,17.51
2022-10-29T22:49:04.601Z,17.50
2022-10-29T22:54:16.767Z,17.44
2022-10-29T22:59:21.138Z,17.35
2022-10-29T23:04:37.243Z,17.27
2022-10-29T23:09:52.227Z,17.23
2022-10-29T23:14:58.664Z,17.19
2022-10-29T23:20:10.457Z,17.16
2022-10-29T23:30:41.039Z,17.06
2022-10-29T23:35:48.184Z,17.00
2022-10-29T23:41:27.958Z,16.98
2022-10-29T23:46:34.557Z,16.90
2022-10-29T23:51:39.986Z,16.82
2022-10-29T23:56:48.559Z,16.79
